Lebanon, Ohio
Current Conditions -  °F | °C
As of 6:53 AM on Friday 19 Dec 2014 (Local Time) from KMGY Reporting Station
Overcast Overcast  
Wind Chill: 20°   Ceiling: 1600
Heat Index: 27°   Visibility: 9mi
Dew Point: 20°   Wind: 6mph
Humidity: 75%   Direction: 360°N
Pressure: 30.24"   Gusts: NA
Location:  39.43°N, 84.21°W
Report Text: KMGY 191153Z AUTO 36005KT 9SM OVC016 M03/M07 A3024 RMK AO2 SLP253 T10281067 11022 21028 53008
Loading
Personal Weather Stations






























Interactive Weather Map New forecast layout! Learn more

10-Day Weather Forecast

Advertisements
Track Severe Weather on mobile